createdAt,value
2018-06-24T00:00:20.662Z,9.60
2018-06-24T00:02:48.755Z,12.47
2018-06-24T00:05:16.707Z,10.03
2018-06-24T00:07:44.633Z,10.00
2018-06-24T00:10:12.573Z,12.73
2018-06-24T00:12:40.475Z,10.53
2018-06-24T00:15:08.429Z,8.90
2018-06-24T00:17:36.245Z,11.97
2018-06-24T00:20:04.348Z,11.43
2018-06-24T00:22:32.238Z,9.40
2018-06-24T00:25:00.166Z,10.03
2018-06-24T00:27:28.287Z,11.77
2018-06-24T00:29:56.255Z,9.03
2018-06-24T00:32:24.115Z,9.90
2018-06-24T00:34:52.010Z,10.10
2018-06-24T00:37:19.939Z,13.83
2018-06-24T00:39:47.784Z,14.67
2018-06-24T00:42:15.816Z,11.33
2018-06-24T00:44:43.804Z,12.13
2018-06-24T00:47:11.740Z,12.10
2018-06-24T00:49:39.727Z,7.67
2018-06-24T00:52:07.574Z,6.30
2018-06-24T00:54:35.483Z,11.20
2018-06-24T00:57:03.507Z,6.93
2018-06-24T00:59:42.684Z,12.50
2018-06-24T01:02:10.539Z,9.53
2018-06-24T01:04:38.382Z,11.47
2018-06-24T01:07:08.498Z,10.33
2018-06-24T01:09:36.429Z,6.50
2018-06-24T01:12:04.402Z,6.37
2018-06-24T01:14:32.200Z,8.23
2018-06-24T01:17:00.101Z,9.57
2018-06-24T01:19:29.911Z,7.53
2018-06-24T01:21:57.867Z,8.40
2018-06-24T01:24:25.744Z,12.87
2018-06-24T01:26:53.546Z,9.93
2018-06-24T01:29:21.504Z,8.73
2018-06-24T01:31:49.302Z,8.07
2018-06-24T01:34:17.201Z,7.53
2018-06-24T01:36:45.132Z,7.27
2018-06-24T01:39:13.124Z,8.37
2018-06-24T01:41:41.024Z,10.87
2018-06-24T01:44:08.773Z,14.00
2018-06-24T01:46:36.545Z,9.60
2018-06-24T01:49:04.330Z,7.40
2018-06-24T01:51:32.248Z,9.37
2018-06-24T01:54:00.104Z,9.57
2018-06-24T01:56:27.896Z,12.13
2018-06-24T01:58:55.734Z,7.53
2018-06-24T02:01:23.701Z,6.87
2018-06-24T02:03:51.592Z,6.50
2018-06-24T02:06:19.531Z,7.37
2018-06-24T02:08:47.443Z,8.83
2018-06-24T02:11:15.282Z,6.93
2018-06-24T02:13:43.595Z,9.77
2018-06-24T02:16:11.503Z,7.37
2018-06-24T02:18:39.420Z,5.47
2018-06-24T02:21:07.449Z,5.57
2018-06-24T02:23:35.441Z,7.73
2018-06-24T02:26:03.438Z,8.13
2018-06-24T02:28:31.328Z,6.93
2018-06-24T02:30:59.164Z,4.27
2018-06-24T02:33:27.017Z,5.30
2018-06-24T02:35:54.905Z,10.23
2018-06-24T02:38:22.925Z,7.53
2018-06-24T02:40:50.934Z,5.80
2018-06-24T02:43:18.870Z,8.07
2018-06-24T02:45:46.773Z,6.23
2018-06-24T02:48:14.809Z,7.33
2018-06-24T02:50:42.870Z,6.17
2018-06-24T02:53:10.866Z,9.80
2018-06-24T02:55:38.758Z,6.10
2018-06-24T02:58:06.690Z,5.40
2018-06-24T03:00:34.603Z,6.90
2018-06-24T03:03:02.423Z,9.90
2018-06-24T03:05:30.281Z,8.83
2018-06-24T03:07:58.054Z,8.43
2018-06-24T03:10:25.888Z,7.43
2018-06-24T03:12:53.679Z,7.73
2018-06-24T03:15:21.642Z,10.97
2018-06-24T03:17:49.528Z,8.30
2018-06-24T03:20:17.412Z,10.70
2018-06-24T03:22:45.684Z,8.33
2018-06-24T03:25:13.690Z,8.17
2018-06-24T03:27:41.545Z,9.97
2018-06-24T03:30:09.496Z,8.53
2018-06-24T03:32:37.320Z,5.17
2018-06-24T03:35:05.348Z,6.73
2018-06-24T03:37:33.273Z,7.83
2018-06-24T03:40:01.144Z,6.27
2018-06-24T03:42:29.185Z,8.13
2018-06-24T03:44:57.046Z,7.03
2018-06-24T03:47:25.060Z,6.57
2018-06-24T03:49:52.947Z,8.00
2018-06-24T03:52:20.909Z,6.33
2018-06-24T03:54:48.871Z,5.97
2018-06-24T03:57:16.983Z,7.57
2018-06-24T03:59:44.824Z,8.27
2018-06-24T04:02:12.750Z,11.37
2018-06-24T04:04:40.756Z,7.43
2018-06-24T04:07:08.711Z,8.37
2018-06-24T04:09:36.707Z,10.67
2018-06-24T04:12:04.698Z,7.67
2018-06-24T04:14:32.670Z,8.90
2018-06-24T04:17:00.532Z,8.10
2018-06-24T04:19:28.523Z,9.10
2018-06-24T04:21:56.344Z,7.83
2018-06-24T04:24:24.288Z,6.90
2018-06-24T04:26:52.238Z,8.03
2018-06-24T04:29:20.242Z,5.73
2018-06-24T04:31:48.126Z,7.13
2018-06-24T04:34:16.074Z,8.20
2018-06-24T04:36:43.908Z,6.67
2018-06-24T04:39:11.802Z,7.27
2018-06-24T04:41:39.785Z,6.17
2018-06-24T04:44:08.709Z,5.67
2018-06-24T04:46:36.625Z,6.80
2018-06-24T04:49:04.540Z,6.27
2018-06-24T04:51:32.461Z,9.47
2018-06-24T04:54:00.233Z,7.03
2018-06-24T04:56:28.108Z,5.90
2018-06-24T04:58:56.028Z,6.77
2018-06-24T05:01:23.826Z,7.90
2018-06-24T05:03:51.805Z,7.37
2018-06-24T05:06:19.732Z,4.00
2018-06-24T05:08:47.738Z,7.57
2018-06-24T05:11:15.742Z,6.83
2018-06-24T05:13:43.696Z,8.27
2018-06-24T05:16:11.612Z,5.73
2018-06-24T05:18:39.526Z,8.57
2018-06-24T05:21:07.529Z,6.77
2018-06-24T05:23:35.500Z,4.17
2018-06-24T05:26:03.704Z,6.53
2018-06-24T05:28:31.633Z,4.87
2018-06-24T05:30:59.609Z,7.43
2018-06-24T05:33:27.573Z,6.67
2018-06-24T05:35:55.472Z,4.40
2018-06-24T05:38:23.432Z,4.03
2018-06-24T05:40:51.402Z,3.47
2018-06-24T05:43:19.418Z,2.40
2018-06-24T05:45:47.297Z,5.53
2018-06-24T05:48:15.144Z,8.13
2018-06-24T05:50:43.005Z,6.87
2018-06-24T05:53:10.995Z,4.40
2018-06-24T05:55:38.846Z,5.83
2018-06-24T05:58:06.702Z,7.67
2018-06-24T06:00:34.526Z,5.40
2018-06-24T06:03:02.539Z,5.80
2018-06-24T06:05:30.441Z,4.73
2018-06-24T06:07:58.500Z,5.67
2018-06-24T06:10:26.493Z,6.20
2018-06-24T06:12:54.381Z,4.10
2018-06-24T06:15:22.305Z,6.33
2018-06-24T06:17:50.240Z,8.70
2018-06-24T06:20:18.179Z,5.07
2018-06-24T06:22:46.047Z,6.57
2018-06-24T06:25:14.107Z,3.93
2018-06-24T06:27:41.971Z,7.33
2018-06-24T06:30:09.949Z,4.77
2018-06-24T06:32:37.803Z,3.53
2018-06-24T06:35:05.841Z,6.60
2018-06-24T06:37:33.808Z,3.67
2018-06-24T06:40:01.651Z,5.50
2018-06-24T06:42:29.684Z,4.20
2018-06-24T06:44:57.833Z,5.30
2018-06-24T06:47:25.563Z,8.43
2018-06-24T06:49:53.503Z,3.53
2018-06-24T06:52:21.476Z,7.80
2018-06-24T06:54:49.506Z,5.47
2018-06-24T06:57:17.575Z,4.97
2018-06-24T06:59:46.622Z,5.50
2018-06-24T07:02:14.625Z,4.47
2018-06-24T07:04:42.368Z,4.43
2018-06-24T07:07:10.328Z,3.97
2018-06-24T07:09:38.334Z,4.53
2018-06-24T07:12:06.455Z,4.03
2018-06-24T07:14:34.497Z,4.97
2018-06-24T07:17:02.567Z,4.50
2018-06-24T07:19:30.447Z,5.23
2018-06-24T07:21:58.383Z,5.77
2018-06-24T07:24:26.491Z,3.90
2018-06-24T07:26:54.626Z,5.97
2018-06-24T07:29:22.580Z,4.37
2018-06-24T07:31:50.666Z,4.50
2018-06-24T07:34:19.215Z,4.27
2018-06-24T07:36:47.742Z,6.23
2018-06-24T07:39:16.859Z,3.87
2018-06-24T07:41:47.289Z,4.83
2018-06-24T07:44:15.809Z,4.50
2018-06-24T07:46:44.270Z,5.57
2018-06-24T07:49:12.374Z,4.00
2018-06-24T07:51:40.515Z,4.40
2018-06-24T07:54:11.401Z,4.80
2018-06-24T07:56:39.248Z,3.87
2018-06-24T07:59:07.636Z,4.40
2018-06-24T08:01:35.785Z,4.13
2018-06-24T08:04:04.005Z,2.87
2018-06-24T08:06:32.384Z,3.70
2018-06-24T08:09:02.125Z,3.10
2018-06-24T08:11:30.175Z,6.33
2018-06-24T08:13:58.209Z,3.63
2018-06-24T08:16:26.247Z,4.43
2018-06-24T08:18:54.831Z,3.30
2018-06-24T08:21:22.893Z,3.50
2018-06-24T08:23:51.189Z,4.60
2018-06-24T08:26:19.335Z,3.53
2018-06-24T08:28:48.254Z,4.30
2018-06-24T08:31:17.652Z,4.43
2018-06-24T08:33:46.559Z,2.57
2018-06-24T08:36:15.315Z,2.30
2018-06-24T08:38:43.249Z,3.83
2018-06-24T08:43:50.374Z,3.30
2018-06-24T08:46:31.549Z,3.77
2018-06-24T08:49:08.767Z,2.90
2018-06-24T08:52:56.114Z,4.50
2018-06-24T08:55:25.348Z,3.17
2018-06-24T08:57:53.358Z,6.00
2018-06-24T09:00:21.478Z,2.73
2018-06-24T09:11:55.215Z,2.33
2018-06-24T09:26:50.616Z,4.90
2018-06-24T09:29:33.424Z,2.43
2018-06-24T09:32:02.768Z,3.47
2018-06-24T09:34:42.697Z,2.33
2018-06-24T09:37:27.771Z,5.80
2018-06-24T09:40:02.376Z,3.97
2018-06-24T09:42:30.933Z,1.80
2018-06-24T09:44:58.900Z,1.90
2018-06-24T09:48:08.277Z,9.10
2018-06-24T09:53:31.171Z,5.90
2018-06-24T09:55:59.294Z,2.60
2018-06-24T09:58:27.737Z,3.47
2018-06-24T10:00:57.281Z,7.40
2018-06-24T10:03:25.427Z,6.30
2018-06-24T10:05:53.452Z,3.87
2018-06-24T10:08:21.570Z,2.07
2018-06-24T10:10:49.695Z,4.20
2018-06-24T10:13:18.936Z,3.03
2018-06-24T10:15:48.244Z,5.30
2018-06-24T10:18:17.523Z,3.43
2018-06-24T10:20:51.012Z,3.50
2018-06-24T10:23:20.191Z,2.87
2018-06-24T10:25:48.330Z,6.20
2018-06-24T10:28:20.947Z,3.87
2018-06-24T10:30:49.763Z,4.67
2018-06-24T10:33:18.911Z,4.43
2018-06-24T10:35:53.558Z,2.40
2018-06-24T10:38:21.564Z,4.57
2018-06-24T10:40:49.919Z,2.70
2018-06-24T10:43:18.574Z,4.13
2018-06-24T10:45:47.719Z,3.40
2018-06-24T10:48:17.456Z,3.83
2018-06-24T10:50:46.967Z,3.77
2018-06-24T10:53:15.912Z,3.20
2018-06-24T10:55:44.429Z,4.30
2018-06-24T10:58:12.460Z,3.53
2018-06-24T11:00:40.466Z,5.03
2018-06-24T11:03:08.927Z,4.10
2018-06-24T11:05:38.515Z,4.73
2018-06-24T11:08:06.619Z,2.63
2018-06-24T11:10:34.830Z,5.23
2018-06-24T11:13:04.600Z,3.73
2018-06-24T11:15:32.594Z,4.47
2018-06-24T11:18:00.844Z,6.20
2018-06-24T11:20:28.844Z,3.53
2018-06-24T11:22:57.382Z,4.40
2018-06-24T11:25:25.935Z,3.37
2018-06-24T11:27:54.231Z,1.80
2018-06-24T11:30:22.459Z,4.10
2018-06-24T11:32:50.582Z,1.93
2018-06-24T11:35:18.967Z,2.97
2018-06-24T11:40:46.220Z,4.93
2018-06-24T11:43:15.873Z,3.47
2018-06-24T11:45:44.575Z,2.20
2018-06-24T11:48:12.603Z,2.27
2018-06-24T11:50:40.460Z,3.30
2018-06-24T11:53:08.553Z,2.57
2018-06-24T11:55:37.520Z,3.83
2018-06-24T11:58:05.643Z,4.23
2018-06-24T12:00:35.071Z,2.10
2018-06-24T12:03:03.182Z,3.03
2018-06-24T12:05:32.273Z,2.30
2018-06-24T12:08:00.357Z,2.67
2018-06-24T12:10:28.392Z,2.00
2018-06-24T12:12:56.775Z,2.27
2018-06-24T12:15:25.914Z,4.67
2018-06-24T12:17:54.056Z,5.03
2018-06-24T12:20:22.250Z,3.40
2018-06-24T12:22:50.827Z,2.70
2018-06-24T12:25:19.788Z,3.50
2018-06-24T12:27:48.465Z,3.60
2018-06-24T12:30:18.786Z,3.43
2018-06-24T12:32:48.305Z,2.43
2018-06-24T12:35:17.891Z,1.93
2018-06-24T12:37:48.433Z,4.77
2018-06-24T12:40:33.344Z,2.17
2018-06-24T12:43:03.092Z,1.90
2018-06-24T12:45:31.481Z,3.27
2018-06-24T12:48:00.219Z,3.83
2018-06-24T12:50:28.813Z,1.40
2018-06-24T12:52:57.885Z,2.23
2018-06-24T12:55:26.050Z,3.07
2018-06-24T12:57:54.663Z,4.43
2018-06-24T13:00:23.162Z,2.40
2018-06-24T13:02:51.249Z,4.37
2018-06-24T13:05:19.731Z,3.23
2018-06-24T13:07:48.459Z,2.17
2018-06-24T13:10:17.807Z,4.67
2018-06-24T13:12:47.545Z,2.10
2018-06-24T13:15:16.691Z,3.13
2018-06-24T13:17:46.785Z,4.00
2018-06-24T13:20:15.824Z,2.67
2018-06-24T13:22:45.259Z,4.07
2018-06-24T13:25:13.354Z,2.67
2018-06-24T13:27:41.671Z,5.40
2018-06-24T13:30:09.865Z,3.23
2018-06-24T13:32:38.967Z,3.93
2018-06-24T13:35:08.135Z,3.77
2018-06-24T13:37:36.441Z,1.77
2018-06-24T13:40:07.356Z,3.27
2018-06-24T13:42:35.322Z,3.83
2018-06-24T13:45:05.768Z,2.13
2018-06-24T13:47:34.222Z,8.23
2018-06-24T13:50:02.305Z,3.70
2018-06-24T13:52:33.745Z,3.60
2018-06-24T13:55:02.348Z,2.30
2018-06-24T13:57:30.727Z,2.50
2018-06-24T13:59:58.904Z,6.90
2018-06-24T14:02:27.670Z,6.27
2018-06-24T14:04:57.186Z,4.77
2018-06-24T14:07:26.354Z,2.27
2018-06-24T14:09:54.769Z,5.10
2018-06-24T14:12:22.811Z,5.63
2018-06-24T14:14:51.794Z,3.50
2018-06-24T14:17:20.916Z,4.30
2018-06-24T14:19:49.486Z,4.17
2018-06-24T14:22:19.490Z,2.43
2018-06-24T14:24:48.486Z,3.83
2018-06-24T14:27:17.735Z,2.00
2018-06-24T14:29:47.785Z,4.47
2018-06-24T14:32:19.024Z,2.93
2018-06-24T14:34:49.529Z,1.90
2018-06-24T14:37:19.735Z,6.43
2018-06-24T14:39:48.473Z,6.03
2018-06-24T14:42:20.608Z,3.77
2018-06-24T14:44:50.291Z,3.23
2018-06-24T14:47:18.258Z,7.70
2018-06-24T14:49:46.773Z,2.63
2018-06-24T14:52:15.750Z,3.80
2018-06-24T14:54:44.888Z,4.53
2018-06-24T14:59:48.368Z,2.53
2018-06-24T15:02:18.253Z,3.53
2018-06-24T15:04:52.238Z,2.93
2018-06-24T15:07:24.574Z,3.77
2018-06-24T15:09:52.915Z,3.00
2018-06-24T15:12:21.216Z,2.97
2018-06-24T15:14:50.945Z,2.93
2018-06-24T15:17:24.819Z,4.03
2018-06-24T15:19:52.755Z,1.70
2018-06-24T15:22:21.754Z,3.17
2018-06-24T15:24:51.475Z,3.80
2018-06-24T15:27:21.203Z,1.73
2018-06-24T15:29:50.710Z,2.80
2018-06-24T15:32:19.860Z,2.87
2018-06-24T15:34:51.091Z,3.07
2018-06-24T15:37:19.330Z,1.60
2018-06-24T15:39:48.936Z,4.57
2018-06-24T15:42:18.650Z,3.17
2018-06-24T15:44:51.801Z,3.00
2018-06-24T15:47:31.610Z,2.13
2018-06-24T15:50:04.152Z,3.13
2018-06-24T15:52:41.689Z,6.37
2018-06-24T15:55:17.302Z,4.10
2018-06-24T15:57:51.334Z,2.93
2018-06-24T16:00:21.686Z,2.63
2018-06-24T16:02:50.619Z,2.37
2018-06-24T16:05:19.063Z,5.57
2018-06-24T16:07:48.252Z,2.37
2018-06-24T16:10:18.060Z,2.30
2018-06-24T16:12:47.038Z,2.07
2018-06-24T16:15:19.422Z,3.13
2018-06-24T16:17:58.905Z,3.43
2018-06-24T16:20:31.085Z,2.10
2018-06-24T16:23:04.124Z,3.97
2018-06-24T16:25:35.475Z,3.13
2018-06-24T16:28:08.245Z,3.70
2018-06-24T16:30:39.653Z,6.27
2018-06-24T16:33:16.227Z,2.30
2018-06-24T16:35:47.859Z,5.17
2018-06-24T16:38:19.092Z,3.73
2018-06-24T16:40:48.292Z,4.40
2018-06-24T16:43:16.594Z,2.47
2018-06-24T16:45:46.317Z,2.23
2018-06-24T16:48:16.392Z,5.80
2018-06-24T16:50:46.218Z,4.10
2018-06-24T16:53:14.716Z,5.00
2018-06-24T16:55:43.196Z,5.53
2018-06-24T16:58:12.530Z,6.27
2018-06-24T17:00:40.697Z,5.17
2018-06-24T17:03:08.871Z,3.97
2018-06-24T17:05:37.195Z,6.40
2018-06-24T17:08:05.974Z,4.13
2018-06-24T17:10:33.842Z,3.07
2018-06-24T17:13:01.946Z,5.93
2018-06-24T17:15:30.161Z,5.37
2018-06-24T17:18:08.146Z,3.97
2018-06-24T17:20:42.754Z,3.73
2018-06-24T17:23:10.885Z,8.67
2018-06-24T17:25:40.175Z,6.13
2018-06-24T17:28:08.452Z,6.90
2018-06-24T17:30:37.294Z,7.13
2018-06-24T17:33:05.679Z,8.10
2018-06-24T17:35:33.823Z,17.73
2018-06-24T17:38:01.836Z,15.47
2018-06-24T17:40:30.273Z,12.07
2018-06-24T17:42:58.523Z,12.27
2018-06-24T17:45:26.899Z,10.90
2018-06-24T17:47:55.398Z,7.13
2018-06-24T17:50:23.566Z,7.90
2018-06-24T17:52:51.879Z,4.97
2018-06-24T17:55:20.341Z,12.73
2018-06-24T17:57:48.525Z,7.07
2018-06-24T18:00:17.503Z,6.63
2018-06-24T18:02:48.460Z,11.57
2018-06-24T18:05:18.195Z,3.60
2018-06-24T18:07:47.768Z,5.50
2018-06-24T18:10:17.271Z,4.77
2018-06-24T18:12:46.197Z,5.07
2018-06-24T18:15:16.085Z,7.73
2018-06-24T18:17:45.848Z,9.73
2018-06-24T18:20:16.834Z,6.80
2018-06-24T18:22:45.529Z,5.67
2018-06-24T18:25:14.231Z,11.43
2018-06-24T18:27:42.498Z,4.73
2018-06-24T18:30:11.782Z,5.60
2018-06-24T18:32:39.846Z,6.80
2018-06-24T18:35:08.382Z,6.13
2018-06-24T18:37:36.669Z,6.03
2018-06-24T18:40:04.807Z,8.40
2018-06-24T18:42:33.427Z,12.60
2018-06-24T18:45:01.697Z,8.53
2018-06-24T18:47:29.785Z,7.80
2018-06-24T18:49:58.053Z,7.20
2018-06-24T18:52:27.200Z,10.57
2018-06-24T18:54:55.352Z,13.53
2018-06-24T18:57:23.411Z,9.83
2018-06-24T18:59:52.059Z,10.87
2018-06-24T19:02:22.252Z,7.30
2018-06-24T19:04:51.307Z,4.43
2018-06-24T19:07:20.101Z,5.07
2018-06-24T19:10:03.681Z,5.63
2018-06-24T19:12:33.229Z,4.13
2018-06-24T19:15:02.335Z,5.93
2018-06-24T19:17:30.416Z,4.00
2018-06-24T19:19:58.538Z,3.63
2018-06-24T19:22:26.486Z,3.63
2018-06-24T19:24:55.063Z,6.10
2018-06-24T19:27:22.876Z,5.53
2018-06-24T19:29:51.330Z,8.20
2018-06-24T19:32:19.734Z,8.23
2018-06-24T19:34:50.088Z,4.70
2018-06-24T19:37:21.503Z,7.17
2018-06-24T19:39:50.920Z,6.83
2018-06-24T19:42:19.759Z,5.77
2018-06-24T19:44:49.141Z,6.83
2018-06-24T19:47:18.131Z,6.17
2018-06-24T19:49:47.565Z,9.80
2018-06-24T19:52:18.220Z,8.10
2018-06-24T19:54:46.916Z,9.40
2018-06-24T19:57:15.395Z,12.60
2018-06-24T19:59:43.557Z,7.23
2018-06-24T20:02:14.044Z,6.27
2018-06-24T20:04:43.959Z,6.53
2018-06-24T20:07:13.816Z,6.43
2018-06-24T20:09:41.846Z,6.40
2018-06-24T20:12:10.101Z,12.83
2018-06-24T20:14:38.061Z,20.83
2018-06-24T20:17:06.307Z,11.23
2018-06-24T20:19:35.302Z,8.10
2018-06-24T20:22:03.127Z,11.07
2018-06-24T20:24:31.122Z,9.53
2018-06-24T20:26:59.147Z,11.37
2018-06-24T20:29:27.059Z,6.97
2018-06-24T20:31:54.812Z,8.33
2018-06-24T20:34:22.811Z,9.27
2018-06-24T20:36:56.540Z,7.37
2018-06-24T20:39:24.804Z,8.70
2018-06-24T20:41:54.215Z,8.30
2018-06-24T20:44:22.544Z,7.70
2018-06-24T20:46:50.624Z,7.03
2018-06-24T20:49:18.632Z,7.20
2018-06-24T20:51:46.805Z,9.30
2018-06-24T20:54:15.070Z,9.47
2018-06-24T20:56:43.107Z,8.50
2018-06-24T20:59:11.190Z,7.13
2018-06-24T21:01:40.085Z,6.60
2018-06-24T21:04:08.494Z,6.97
2018-06-24T21:06:36.474Z,9.07
2018-06-24T21:09:07.332Z,11.70
2018-06-24T21:11:35.308Z,7.07
2018-06-24T21:14:03.421Z,8.17
2018-06-24T21:16:31.481Z,6.90
2018-06-24T21:18:59.606Z,6.30
2018-06-24T21:21:27.554Z,9.60
2018-06-24T21:23:55.472Z,6.53
2018-06-24T21:26:23.991Z,10.87
2018-06-24T21:28:51.832Z,7.00
2018-06-24T21:31:19.785Z,6.80
2018-06-24T21:33:47.662Z,8.53
2018-06-24T21:36:15.966Z,5.07
2018-06-24T21:38:44.473Z,6.50
2018-06-24T21:41:12.456Z,8.63
2018-06-24T21:43:40.501Z,5.27
2018-06-24T21:46:08.423Z,5.53
2018-06-24T21:48:36.563Z,4.67
2018-06-24T21:51:04.595Z,6.20
2018-06-24T21:53:32.539Z,6.90
2018-06-24T21:56:00.563Z,5.70
2018-06-24T21:58:28.612Z,4.77
2018-06-24T22:00:56.698Z,4.57
2018-06-24T22:03:24.647Z,5.77
2018-06-24T22:05:52.588Z,3.90
2018-06-24T22:08:20.455Z,5.80
2018-06-24T22:10:49.297Z,3.00
2018-06-24T22:13:17.322Z,5.40
2018-06-24T22:15:45.352Z,7.63
2018-06-24T22:18:13.392Z,3.80
2018-06-24T22:20:41.383Z,4.10
2018-06-24T22:23:09.309Z,2.87
2018-06-24T22:25:37.471Z,4.57
2018-06-24T22:28:05.646Z,4.10
2018-06-24T22:30:33.645Z,3.03
2018-06-24T22:33:01.684Z,3.10
2018-06-24T22:35:29.639Z,6.70
2018-06-24T22:37:57.704Z,3.90
2018-06-24T22:40:25.777Z,4.13
2018-06-24T22:42:53.676Z,3.10
2018-06-24T22:45:21.727Z,3.57
2018-06-24T22:47:49.701Z,3.20
2018-06-24T22:50:17.884Z,4.23
2018-06-24T22:52:45.778Z,3.00
2018-06-24T22:55:15.376Z,3.27
2018-06-24T22:57:43.456Z,3.20
2018-06-24T23:00:14.104Z,4.70
2018-06-24T23:02:42.724Z,6.13
2018-06-24T23:05:11.423Z,5.67
2018-06-24T23:07:40.689Z,4.87
2018-06-24T23:10:08.730Z,3.90
2018-06-24T23:12:36.721Z,4.13
2018-06-24T23:15:05.747Z,5.57
2018-06-24T23:17:33.718Z,4.17
2018-06-24T23:20:01.511Z,4.73
2018-06-24T23:22:29.443Z,8.10
2018-06-24T23:24:57.414Z,3.80
2018-06-24T23:27:25.310Z,4.40
2018-06-24T23:29:53.404Z,4.10
2018-06-24T23:32:21.421Z,6.00
2018-06-24T23:34:49.523Z,6.33
2018-06-24T23:37:17.495Z,5.33
2018-06-24T23:39:46.329Z,3.90
2018-06-24T23:42:14.347Z,4.10
2018-06-24T23:44:42.323Z,3.57
2018-06-24T23:47:10.274Z,6.40
2018-06-24T23:49:38.100Z,5.10
2018-06-24T23:52:06.165Z,4.07
2018-06-24T23:54:34.880Z,6.17
2018-06-24T23:57:02.880Z,6.30
2018-06-24T23:59:30.803Z,5.13
